sensor_id;sensor_type;location;lat;lon;timestamp;pressure;altitude;pressure_sealevel;temperature;humidity
45040;BME280;30778;53.574;7.770;2023-02-24T00:01:10;101275.75;;;2.63;44.14
45040;BME280;30778;53.574;7.770;2023-02-24T00:03:37;101272.31;;;2.65;43.92
45040;BME280;30778;53.574;7.770;2023-02-24T00:06:04;101264.53;;;2.13;45.05
45040;BME280;30778;53.574;7.770;2023-02-24T00:08:38;101262.84;;;2.40;44.47
45040;BME280;30778;53.574;7.770;2023-02-24T00:11:08;101266.22;;;1.89;45.46
45040;BME280;30778;53.574;7.770;2023-02-24T00:13:34;101263.66;;;2.02;45.06
45040;BME280;30778;53.574;7.770;2023-02-24T00:16:01;101266.25;;;2.05;45.71
45040;BME280;30778;53.574;7.770;2023-02-24T00:18:27;101253.31;;;1.76;46.32
45040;BME280;30778;53.574;7.770;2023-02-24T00:20:53;101246.47;;;1.99;45.89
45040;BME280;30778;53.574;7.770;2023-02-24T00:23:21;101242.19;;;2.06;45.47
45040;BME280;30778;53.574;7.770;2023-02-24T00:25:48;101231.88;;;2.15;45.69
45040;BME280;30778;53.574;7.770;2023-02-24T00:28:14;101230.16;;;2.23;45.51
45040;BME280;30778;53.574;7.770;2023-02-24T00:30:40;101230.19;;;2.35;45.55
45040;BME280;30778;53.574;7.770;2023-02-24T00:33:09;101230.16;;;2.49;45.09
45040;BME280;30778;53.574;7.770;2023-02-24T00:35:36;101224.16;;;2.32;45.69
45040;BME280;30778;53.574;7.770;2023-02-24T00:38:02;101219.00;;;2.24;46.03
45040;BME280;30778;53.574;7.770;2023-02-24T00:40:27;101216.41;;;2.49;45.46
45040;BME280;30778;53.574;7.770;2023-02-24T00:42:54;101209.53;;;2.29;45.92
45040;BME280;30778;53.574;7.770;2023-02-24T00:45:20;101200.06;;;2.02;46.41
45040;BME280;30778;53.574;7.770;2023-02-24T00:47:45;101200.91;;;2.06;46.40
45040;BME280;30778;53.574;7.770;2023-02-24T00:50:10;101196.66;;;2.16;46.27
45040;BME280;30778;53.574;7.770;2023-02-24T00:52:39;101187.16;;;2.13;46.10
45040;BME280;30778;53.574;7.770;2023-02-24T00:55:05;101192.34;;;2.07;46.57
45040;BME280;30778;53.574;7.770;2023-02-24T00:57:39;101187.16;;;1.94;47.28
45040;BME280;30778;53.574;7.770;2023-02-24T01:00:05;101185.41;;;1.75;47.88
45040;BME280;30778;53.574;7.770;2023-02-24T01:02:37;101182.91;;;2.04;46.95
45040;BME280;30778;53.574;7.770;2023-02-24T01:05:02;101177.72;;;1.80;47.73
45040;BME280;30778;53.574;7.770;2023-02-24T01:07:28;101163.81;;;1.30;49.05
45040;BME280;30778;53.574;7.770;2023-02-24T01:09:54;101166.31;;;1.07;49.44
45040;BME280;30778;53.574;7.770;2023-02-24T01:12:21;101153.63;;;1.53;48.86
45040;BME280;30778;53.574;7.770;2023-02-24T01:15:25;101148.44;;;1.55;48.64
45040;BME280;30778;53.574;7.770;2023-02-24T01:17:50;101141.63;;;1.98;47.78
45040;BME280;30778;53.574;7.770;2023-02-24T01:20:16;101139.06;;;1.84;48.33
45040;BME280;30778;53.574;7.770;2023-02-24T01:22:48;101133.88;;;1.81;48.66
45040;BME280;30778;53.574;7.770;2023-02-24T01:25:15;101129.59;;;1.89;48.43
45040;BME280;30778;53.574;7.770;2023-02-24T01:27:42;101125.28;;;1.94;48.17
45040;BME280;30778;53.574;7.770;2023-02-24T01:30:09;101120.13;;;1.94;47.71
45040;BME280;30778;53.574;7.770;2023-02-24T01:32:41;101115.88;;;1.80;48.53
45040;BME280;30778;53.574;7.770;2023-02-24T01:35:07;101109.81;;;1.51;49.62
45040;BME280;30778;53.574;7.770;2023-02-24T01:37:33;101101.22;;;2.08;48.22
45040;BME280;30778;53.574;7.770;2023-02-24T01:39:58;101102.09;;;1.90;48.79
45040;BME280;30778;53.574;7.770;2023-02-24T01:42:29;101093.50;;;2.09;48.25
45040;BME280;30778;53.574;7.770;2023-02-24T01:45:03;101096.06;;;1.97;48.54
45040;BME280;30778;53.574;7.770;2023-02-24T01:47:30;101092.66;;;1.84;48.88
45040;BME280;30778;53.574;7.770;2023-02-24T01:49:55;101092.56;;;1.23;50.53
45040;BME280;30778;53.574;7.770;2023-02-24T01:52:25;101080.63;;;1.46;49.70
45040;BME280;30778;53.574;7.770;2023-02-24T01:55:11;101085.78;;;1.74;49.38
45040;BME280;30778;53.574;7.770;2023-02-24T01:57:40;101071.16;;;1.50;49.98
45040;BME280;30778;53.574;7.770;2023-02-24T02:00:09;101069.44;;;1.52;49.77
45040;BME280;30778;53.574;7.770;2023-02-24T02:02:40;101068.53;;;1.39;50.58
45040;BME280;30778;53.574;7.770;2023-02-24T02:05:08;101065.94;;;1.30;50.37
45040;BME280;30778;53.574;7.770;2023-02-24T02:07:35;101061.50;;;0.77;51.47
45040;BME280;30778;53.574;7.770;2023-02-24T03:59:39;100873.69;;;0.51;57.13
45040;BME280;30778;53.574;7.770;2023-02-24T04:02:20;100859.09;;;1.03;55.50
45040;BME280;30778;53.574;7.770;2023-02-24T04:04:55;100852.25;;;0.96;55.02
45040;BME280;30778;53.574;7.770;2023-02-24T04:07:52;100838.53;;;0.96;55.39
45040;BME280;30778;53.574;7.770;2023-02-24T04:10:34;100833.38;;;0.94;55.10
45040;BME280;30778;53.574;7.770;2023-02-24T04:13:50;100839.38;;;1.11;55.12
45040;BME280;30778;53.574;7.770;2023-02-24T04:15:54;100826.50;;;1.24;54.62
45040;BME280;30778;53.574;7.770;2023-02-24T04:18:28;100828.16;;;1.37;53.97
45040;BME280;30778;53.574;7.770;2023-02-24T04:20:58;100808.50;;;0.75;55.68
45040;BME280;30778;53.574;7.770;2023-02-24T04:23:28;100804.22;;;0.95;55.31
45040;BME280;30778;53.574;7.770;2023-02-24T04:25:56;100798.22;;;0.65;55.63
45040;BME280;30778;53.574;7.770;2023-02-24T04:28:23;100799.09;;;0.61;56.56
45040;BME280;30778;53.574;7.770;2023-02-24T04:30:52;100784.53;;;0.57;56.40
45040;BME280;30778;53.574;7.770;2023-02-24T04:33:19;100787.06;;;0.79;55.58
45040;BME280;30778;53.574;7.770;2023-02-24T04:35:47;100773.31;;;1.14;54.83
45040;BME280;30778;53.574;7.770;2023-02-24T04:38:15;100766.38;;;1.40;54.02
45040;BME280;30778;53.574;7.770;2023-02-24T04:40:41;100766.41;;;1.23;54.96
45040;BME280;30778;53.574;7.770;2023-02-24T04:43:07;100764.75;;;1.08;55.47
45040;BME280;30778;53.574;7.770;2023-02-24T04:45:33;100751.94;;;0.79;56.06
45040;BME280;30778;53.574;7.770;2023-02-24T04:48:00;100751.06;;;0.80;55.85
45040;BME280;30778;53.574;7.770;2023-02-24T04:50:32;100745.06;;;0.63;56.50
45040;BME280;30778;53.574;7.770;2023-02-24T04:55:27;100727.06;;;0.71;56.69
45040;BME280;30778;53.574;7.770;2023-02-24T04:58:02;100727.06;;;0.80;56.25
45040;BME280;30778;53.574;7.770;2023-02-24T05:00:28;100714.09;;;1.14;55.29
45040;BME280;30778;53.574;7.770;2023-02-24T05:03:03;100707.13;;;1.46;54.34
45040;BME280;30778;53.574;7.770;2023-02-24T05:05:29;100696.09;;;1.01;55.34
45040;BME280;30778;53.574;7.770;2023-02-24T05:08:00;100695.38;;;0.27;58.08
45040;BME280;30778;53.574;7.770;2023-02-24T05:10:41;100685.84;;;0.92;56.38
45040;BME280;30778;53.574;7.770;2023-02-24T05:13:08;100674.50;;;1.48;55.33
45040;BME280;30778;53.574;7.770;2023-02-24T05:15:39;100675.66;;;0.61;57.31
45040;BME280;30778;53.574;7.770;2023-02-24T05:18:06;100660.09;;;0.98;56.35
45040;BME280;30778;53.574;7.770;2023-02-24T05:20:53;100659.34;;;0.58;58.06
45040;BME280;30778;53.574;7.770;2023-02-24T05:23:43;100653.34;;;0.60;57.83
45040;BME280;30778;53.574;7.770;2023-02-24T05:26:15;100649.03;;;0.65;57.71
45040;BME280;30778;53.574;7.770;2023-02-24T05:28:42;100646.50;;;0.47;58.75
45040;BME280;30778;53.574;7.770;2023-02-24T05:31:14;100634.25;;;1.21;56.28
45040;BME280;30778;53.574;7.770;2023-02-24T05:33:42;100620.66;;;0.93;57.44
45040;BME280;30778;53.574;7.770;2023-02-24T05:36:11;100625.00;;;0.77;57.91
45040;BME280;30778;53.574;7.770;2023-02-24T05:38:39;100611.34;;;0.60;57.96
45040;BME280;30778;53.574;7.770;2023-02-24T05:41:07;100602.78;;;0.58;58.54
45040;BME280;30778;53.574;7.770;2023-02-24T05:43:33;100598.41;;;0.86;57.64
45040;BME280;30778;53.574;7.770;2023-02-24T05:46:01;100590.72;;;0.75;57.81
45040;BME280;30778;53.574;7.770;2023-02-24T05:48:31;100579.56;;;0.72;58.36
45040;BME280;30778;53.574;7.770;2023-02-24T05:51:01;100578.81;;;0.36;58.92
45040;BME280;30778;53.574;7.770;2023-02-24T05:53:27;100571.75;;;0.96;57.67
45040;BME280;30778;53.574;7.770;2023-02-24T05:55:52;100567.41;;;1.04;57.58
45040;BME280;30778;53.574;7.770;2023-02-24T05:58:18;100553.91;;;0.56;58.85
45040;BME280;30778;53.574;7.770;2023-02-24T06:00:43;100564.19;;;0.52;58.95
45040;BME280;30778;53.574;7.770;2023-02-24T06:03:11;100543.63;;;0.58;58.73
45040;BME280;30778;53.574;7.770;2023-02-24T06:05:42;100542.66;;;0.82;58.00
45040;BME280;30778;53.574;7.770;2023-02-24T06:08:08;100535.91;;;0.53;58.98
45040;BME280;30778;53.574;7.770;2023-02-24T06:10:37;100533.31;;;0.62;58.82
45040;BME280;30778;53.574;7.770;2023-02-24T06:13:05;100533.25;;;0.78;58.26
45040;BME280;30778;53.574;7.770;2023-02-24T06:15:31;100530.78;;;0.55;58.85
45040;BME280;30778;53.574;7.770;2023-02-24T06:17:59;100529.97;;;0.42;59.72
45040;BME280;30778;53.574;7.770;2023-02-24T06:20:27;100519.72;;;0.33;59.64
45040;BME280;30778;53.574;7.770;2023-02-24T06:22:53;100518.78;;;0.51;59.07
45040;BME280;30778;53.574;7.770;2023-02-24T06:25:22;100513.59;;;0.66;58.59
45040;BME280;30778;53.574;7.770;2023-02-24T06:27:52;100509.22;;;0.79;57.97
45040;BME280;30778;53.574;7.770;2023-02-24T06:30:21;100509.31;;;0.60;59.53
45040;BME280;30778;53.574;7.770;2023-02-24T06:32:47;100508.44;;;0.63;58.98
45040;BME280;30778;53.574;7.770;2023-02-24T06:35:13;100495.72;;;0.31;59.21
45040;BME280;30778;53.574;7.770;2023-02-24T06:37:38;100499.22;;;0.08;60.74
45040;BME280;30778;53.574;7.770;2023-02-24T06:40:06;100505.88;;;0.58;59.29
45040;BME280;30778;53.574;7.770;2023-02-24T06:42:46;100492.28;;;0.32;60.23
45040;BME280;30778;53.574;7.770;2023-02-24T06:45:13;100495.53;;;0.67;59.50
45040;BME280;30778;53.574;7.770;2023-02-24T06:47:40;100488.97;;;-0.10;61.95
45040;BME280;30778;53.574;7.770;2023-02-24T06:50:09;100487.16;;;0.25;60.67
45040;BME280;30778;53.574;7.770;2023-02-24T06:52:35;100482.97;;;-0.09;61.70
45040;BME280;30778;53.574;7.770;2023-02-24T06:55:02;100475.75;;;0.80;59.25
45040;BME280;30778;53.574;7.770;2023-02-24T06:57:31;100470.81;;;0.46;60.12
45040;BME280;30778;53.574;7.770;2023-02-24T06:59:59;100467.31;;;0.60;59.56
45040;BME280;30778;53.574;7.770;2023-02-24T07:02:40;100475.75;;;0.80;59.56
45040;BME280;30778;53.574;7.770;2023-02-24T07:05:06;100467.34;;;0.47;60.03
45040;BME280;30778;53.574;7.770;2023-02-24T07:07:39;100471.59;;;0.56;60.24
45040;BME280;30778;53.574;7.770;2023-02-24T07:10:13;100464.91;;;0.12;61.67
45040;BME280;30778;53.574;7.770;2023-02-24T07:12:39;100462.31;;;0.31;61.19
45040;BME280;30778;53.574;7.770;2023-02-24T07:15:07;100457.94;;;0.43;61.01
45040;BME280;30778;53.574;7.770;2023-02-24T07:17:32;100450.81;;;0.93;59.53
45040;BME280;30778;53.574;7.770;2023-02-24T07:19:58;100437.47;;;0.28;61.70
45040;BME280;30778;53.574;7.770;2023-02-24T07:22:35;100441.63;;;0.49;61.09
45040;BME280;30778;53.574;7.770;2023-02-24T07:25:02;100437.53;;;0.13;61.89
45040;BME280;30778;53.574;7.770;2023-02-24T07:27:29;100434.75;;;0.57;60.98
45040;BME280;30778;53.574;7.770;2023-02-24T07:29:54;100434.72;;;0.62;60.29
45040;BME280;30778;53.574;7.770;2023-02-24T07:32:21;100422.50;;;0.90;60.33
45040;BME280;30778;53.574;7.770;2023-02-24T07:34:46;100428.81;;;0.43;61.11
45040;BME280;30778;53.574;7.770;2023-02-24T07:37:13;100424.63;;;0.19;62.30
45040;BME280;30778;53.574;7.770;2023-02-24T07:39:39;100410.59;;;0.77;61.20
45040;BME280;30778;53.574;7.770;2023-02-24T07:42:09;100414.22;;;0.48;61.97
45040;BME280;30778;53.574;7.770;2023-02-24T07:44:44;100395.25;;;0.66;61.37
45040;BME280;30778;53.574;7.770;2023-02-24T07:47:10;100394.72;;;0.10;63.31
45040;BME280;30778;53.574;7.770;2023-02-24T07:49:38;100398.09;;;0.12;62.58
45040;BME280;30778;53.574;7.770;2023-02-24T07:52:03;100381.56;;;0.62;62.10
45040;BME280;30778;53.574;7.770;2023-02-24T07:54:32;100370.34;;;0.73;62.01
45040;BME280;30778;53.574;7.770;2023-02-24T07:56:58;100373.03;;;0.57;62.29
45040;BME280;30778;53.574;7.770;2023-02-24T07:59:27;100364.31;;;0.74;61.81
45040;BME280;30778;53.574;7.770;2023-02-24T08:01:53;100352.34;;;0.71;62.16
45040;BME280;30778;53.574;7.770;2023-02-24T08:04:22;100356.63;;;0.71;62.65
45040;BME280;30778;53.574;7.770;2023-02-24T08:06:49;100342.16;;;0.57;63.05
45040;BME280;30778;53.574;7.770;2023-02-24T08:09:22;100345.47;;;0.70;63.00
45040;BME280;30778;53.574;7.770;2023-02-24T08:12:09;100347.38;;;0.43;63.25
45040;BME280;30778;53.574;7.770;2023-02-24T08:14:35;100337.72;;;0.78;62.86
45040;BME280;30778;53.574;7.770;2023-02-24T08:17:10;100339.06;;;1.20;61.40
45040;BME280;30778;53.574;7.770;2023-02-24T08:19:36;100334.25;;;0.82;62.86
45040;BME280;30778;53.574;7.770;2023-02-24T08:22:06;100320.56;;;0.80;63.42
45040;BME280;30778;53.574;7.770;2023-02-24T08:24:55;100330.34;;;1.32;61.57
45040;BME280;30778;53.574;7.770;2023-02-24T08:27:23;100317.19;;;0.72;63.17
45040;BME280;30778;53.574;7.770;2023-02-24T08:29:51;100322.72;;;1.21;62.35
45040;BME280;30778;53.574;7.770;2023-02-24T08:32:30;100323.50;;;1.31;62.35
45040;BME280;30778;53.574;7.770;2023-02-24T08:35:09;100311.03;;;0.89;63.69
45040;BME280;30778;53.574;7.770;2023-02-24T08:37:41;100305.59;;;1.22;62.77
45040;BME280;30778;53.574;7.770;2023-02-24T08:43:16;100320.09;;;1.29;62.65
45040;BME280;30778;53.574;7.770;2023-02-24T08:45:53;100305.91;;;0.83;64.27
45040;BME280;30778;53.574;7.770;2023-02-24T08:48:36;100291.25;;;1.75;61.61
45040;BME280;30778;53.574;7.770;2023-02-24T08:51:19;100288.97;;;1.52;62.30
45040;BME280;30778;53.574;7.770;2023-02-24T08:53:49;100287.50;;;1.25;63.27
45040;BME280;30778;53.574;7.770;2023-02-24T08:56:22;100296.44;;;1.70;62.30
45040;BME280;30778;53.574;7.770;2023-02-24T08:58:52;100286.25;;;1.64;62.35
45040;BME280;30778;53.574;7.770;2023-02-24T09:01:28;100293.28;;;2.15;60.79
45040;BME280;30778;53.574;7.770;2023-02-24T09:04:00;100296.38;;;1.78;62.23
45040;BME280;30778;53.574;7.770;2023-02-24T09:09:05;100293.91;;;2.31;60.94
45040;BME280;30778;53.574;7.770;2023-02-24T09:11:57;100278.47;;;2.29;60.81
45040;BME280;30778;53.574;7.770;2023-02-24T09:14:29;100265.19;;;2.54;60.49
45040;BME280;30778;53.574;7.770;2023-02-24T09:17:01;100265.59;;;2.81;59.56
45040;BME280;30778;53.574;7.770;2023-02-24T09:19:29;100251.72;;;2.37;60.57
45040;BME280;30778;53.574;7.770;2023-02-24T09:22:25;100247.09;;;3.05;59.02
45040;BME280;30778;53.574;7.770;2023-02-24T09:24:55;100240.41;;;2.44;60.45
45040;BME280;30778;53.574;7.770;2023-02-24T09:27:39;100243.06;;;2.41;60.94
45040;BME280;30778;53.574;7.770;2023-02-24T09:30:09;100234.44;;;2.91;60.05
45040;BME280;30778;53.574;7.770;2023-02-24T09:32:50;100231.84;;;2.42;61.92
45040;BME280;30778;53.574;7.770;2023-02-24T09:35:26;100233.31;;;2.58;62.58
45040;BME280;30778;53.574;7.770;2023-02-24T09:37:58;100239.91;;;3.19;60.78
45040;BME280;30778;53.574;7.770;2023-02-24T09:40:33;100232.91;;;3.70;60.41
45040;BME280;30778;53.574;7.770;2023-02-24T09:43:10;100231.88;;;3.78;59.74
45040;BME280;30778;53.574;7.770;2023-02-24T09:46:05;100227.94;;;3.99;57.94
45040;BME280;30778;53.574;7.770;2023-02-24T09:48:57;100227.78;;;5.41;56.90
45040;BME280;30778;53.574;7.770;2023-02-24T09:51:31;100208.41;;;6.63;54.59
45040;BME280;30778;53.574;7.770;2023-02-24T09:54:17;100205.97;;;7.56;52.71
45040;BME280;30778;53.574;7.770;2023-02-24T09:56:54;100213.00;;;7.28;50.54
45040;BME280;30778;53.574;7.770;2023-02-24T09:59:56;100208.28;;;7.16;51.38
45040;BME280;30778;53.574;7.770;2023-02-24T10:02:53;100196.97;;;6.94;51.25
45040;BME280;30778;53.574;7.770;2023-02-24T10:05:35;100185.22;;;7.30;51.48
45040;BME280;30778;53.574;7.770;2023-02-24T10:08:17;100189.63;;;6.55;51.42
45040;BME280;30778;53.574;7.770;2023-02-24T10:10:50;100184.69;;;6.97;52.15
45040;BME280;30778;53.574;7.770;2023-02-24T10:13:32;100182.75;;;6.54;52.84
45040;BME280;30778;53.574;7.770;2023-02-24T10:16:03;100184.31;;;7.08;53.24
45040;BME280;30778;53.574;7.770;2023-02-24T10:24:08;100182.03;;;5.69;52.55
45040;BME280;30778;53.574;7.770;2023-02-24T10:26:47;100171.56;;;5.72;52.39
45040;BME280;30778;53.574;7.770;2023-02-24T10:29:49;100167.16;;;5.16;53.89
45040;BME280;30778;53.574;7.770;2023-02-24T10:32:25;100167.50;;;5.91;52.11
45040;BME280;30778;53.574;7.770;2023-02-24T10:34:59;100151.94;;;5.91;51.80
45040;BME280;30778;53.574;7.770;2023-02-24T10:37:26;100161.59;;;7.13;50.39
45040;BME280;30778;53.574;7.770;2023-02-24T10:39:58;100154.66;;;7.14;48.93
45040;BME280;30778;53.574;7.770;2023-02-24T10:42:28;100157.72;;;7.70;47.51
45040;BME280;30778;53.574;7.770;2023-02-24T10:45:25;100158.38;;;7.30;48.70
45040;BME280;30778;53.574;7.770;2023-02-24T10:48:05;100165.59;;;6.49;49.27
45040;BME280;30778;53.574;7.770;2023-02-24T10:50:43;100163.72;;;5.73;50.27
45040;BME280;30778;53.574;7.770;2023-02-24T10:53:14;100175.34;;;5.61;51.27
45040;BME280;30778;53.574;7.770;2023-02-24T10:55:56;100165.22;;;5.24;51.90
45040;BME280;30778;53.574;7.770;2023-02-24T10:58:41;100162.50;;;5.57;50.88
45040;BME280;30778;53.574;7.770;2023-02-24T11:01:30;100141.28;;;5.14;51.38
45040;BME280;30778;53.574;7.770;2023-02-24T11:04:11;100151.47;;;5.50;50.97
45040;BME280;30778;53.574;7.770;2023-02-24T11:06:47;100132.66;;;5.72;48.72
45040;BME280;30778;53.574;7.770;2023-02-24T11:09:24;100131.25;;;5.88;49.18
45040;BME280;30778;53.574;7.770;2023-02-24T11:11:55;100133.63;;;5.96;50.16
45040;BME280;30778;53.574;7.770;2023-02-24T11:15:14;100134.97;;;6.34;48.34
45040;BME280;30778;53.574;7.770;2023-02-24T11:18:00;100134.59;;;6.70;47.88
45040;BME280;30778;53.574;7.770;2023-02-24T11:20:32;100130.59;;;6.85;47.96
45040;BME280;30778;53.574;7.770;2023-02-24T11:23:00;100127.31;;;6.80;47.77
45040;BME280;30778;53.574;7.770;2023-02-24T11:25:37;100124.88;;;6.75;47.86
45040;BME280;30778;53.574;7.770;2023-02-24T11:28:45;100119.50;;;6.31;48.53
45040;BME280;30778;53.574;7.770;2023-02-24T11:31:37;100114.59;;;6.22;49.12
45040;BME280;30778;53.574;7.770;2023-02-24T11:39:55;100094.91;;;6.41;47.96
45040;BME280;30778;53.574;7.770;2023-02-24T11:42:41;100088.75;;;6.19;47.41
45040;BME280;30778;53.574;7.770;2023-02-24T11:45:32;100089.28;;;6.77;46.77
45040;BME280;30778;53.574;7.770;2023-02-24T11:48:08;100081.41;;;7.48;46.16
45040;BME280;30778;53.574;7.770;2023-02-24T11:50:45;100078.22;;;7.41;45.33
45040;BME280;30778;53.574;7.770;2023-02-24T11:55:42;100066.44;;;6.63;46.24
45040;BME280;30778;53.574;7.770;2023-02-24T11:58:16;100071.69;;;6.62;47.27
45040;BME280;30778;53.574;7.770;2023-02-24T12:00:56;100077.50;;;5.93;48.32
45040;BME280;30778;53.574;7.770;2023-02-24T12:03:34;100071.88;;;5.54;49.30
45040;BME280;30778;53.574;7.770;2023-02-24T12:06:14;100071.75;;;5.57;49.86
45040;BME280;30778;53.574;7.770;2023-02-24T12:08:44;100072.31;;;5.40;50.09
45040;BME280;30778;53.574;7.770;2023-02-24T12:14:29;100066.25;;;4.81;51.11
45040;BME280;30778;53.574;7.770;2023-02-24T12:17:22;100068.91;;;4.78;50.56
45040;BME280;30778;53.574;7.770;2023-02-24T12:20:04;100056.56;;;5.46;48.91
45040;BME280;30778;53.574;7.770;2023-02-24T12:22:39;100054.03;;;5.16;49.93
45040;BME280;30778;53.574;7.770;2023-02-24T12:25:13;100059.91;;;4.93;50.65
45040;BME280;30778;53.574;7.770;2023-02-24T12:30:39;100035.13;;;7.14;46.01
45040;BME280;30778;53.574;7.770;2023-02-24T12:33:29;100032.38;;;6.95;45.20
45040;BME280;30778;53.574;7.770;2023-02-24T12:41:41;100037.81;;;5.64;46.95
45040;BME280;30778;53.574;7.770;2023-02-24T12:44:20;100039.09;;;5.24;48.18
45040;BME280;30778;53.574;7.770;2023-02-24T12:47:09;100033.28;;;5.16;47.42
45040;BME280;30778;53.574;7.770;2023-02-24T12:52:36;100037.38;;;5.78;45.64
45040;BME280;30778;53.574;7.770;2023-02-24T12:55:16;100034.31;;;5.65;46.59
45040;BME280;30778;53.574;7.770;2023-02-24T13:03:40;100028.59;;;6.07;46.43
45040;BME280;30778;53.574;7.770;2023-02-24T13:06:17;100023.25;;;6.12;46.51
45040;BME280;30778;53.574;7.770;2023-02-24T13:11:33;100029.31;;;6.38;46.96
45040;BME280;30778;53.574;7.770;2023-02-24T13:14:33;100028.78;;;6.01;47.72
45040;BME280;30778;53.574;7.770;2023-02-24T13:19:33;100021.81;;;5.52;48.62
45040;BME280;30778;53.574;7.770;2023-02-24T13:27:26;100021.84;;;5.77;49.76
45040;BME280;30778;53.574;7.770;2023-02-24T13:29:57;100010.34;;;6.11;49.12
45040;BME280;30778;53.574;7.770;2023-02-24T13:32:34;100007.31;;;5.98;49.40
45040;BME280;30778;53.574;7.770;2023-02-24T13:37:48;99998.81;;;5.67;51.59
45040;BME280;30778;53.574;7.770;2023-02-24T13:42:41;99988.66;;;5.08;52.90
45040;BME280;30778;53.574;7.770;2023-02-24T14:00:28;99971.72;;;4.98;52.64
45040;BME280;30778;53.574;7.770;2023-02-24T14:02:57;99977.50;;;5.06;53.83
45040;BME280;30778;53.574;7.770;2023-02-24T14:05:30;99993.13;;;4.73;54.83
45040;BME280;30778;53.574;7.770;2023-02-24T14:07:58;99983.00;;;4.36;55.53
45040;BME280;30778;53.574;7.770;2023-02-24T14:10:29;99984.88;;;4.31;54.98
45040;BME280;30778;53.574;7.770;2023-02-24T14:13:16;99977.44;;;4.18;54.21
45040;BME280;30778;53.574;7.770;2023-02-24T14:15:45;99975.75;;;4.49;53.84
45040;BME280;30778;53.574;7.770;2023-02-24T14:18:20;99975.38;;;4.31;55.16
45040;BME280;30778;53.574;7.770;2023-02-24T14:20:46;99985.84;;;4.56;54.97
45040;BME280;30778;53.574;7.770;2023-02-24T14:23:27;99980.38;;;4.37;56.50
45040;BME280;30778;53.574;7.770;2023-02-24T14:25:58;99992.66;;;4.29;56.96
45040;BME280;30778;53.574;7.770;2023-02-24T14:28:28;99978.06;;;3.63;57.65
45040;BME280;30778;53.574;7.770;2023-02-24T14:30:59;99975.28;;;3.70;56.05
45040;BME280;30778;53.574;7.770;2023-02-24T14:33:31;99986.09;;;3.52;55.65
45040;BME280;30778;53.574;7.770;2023-02-24T14:35:57;99979.06;;;3.58;55.44
45040;BME280;30778;53.574;7.770;2023-02-24T14:40:59;99984.78;;;3.70;55.11
45040;BME280;30778;53.574;7.770;2023-02-24T14:43:25;99979.78;;;3.96;54.35
45040;BME280;30778;53.574;7.770;2023-02-24T14:45:52;99976.28;;;3.65;55.51
45040;BME280;30778;53.574;7.770;2023-02-24T14:48:29;99978.03;;;4.30;54.15
45040;BME280;30778;53.574;7.770;2023-02-24T14:51:01;99975.19;;;3.75;55.04
45040;BME280;30778;53.574;7.770;2023-02-24T14:53:28;99990.13;;;3.96;55.42
45040;BME280;30778;53.574;7.770;2023-02-24T14:55:56;99980.19;;;3.81;56.21
45040;BME280;30778;53.574;7.770;2023-02-24T14:58:39;99977.34;;;3.57;56.07
45040;BME280;30778;53.574;7.770;2023-02-24T15:03:53;99986.03;;;3.17;55.57
45040;BME280;30778;53.574;7.770;2023-02-24T15:06:31;99987.69;;;3.57;54.53
45040;BME280;30778;53.574;7.770;2023-02-24T15:09:04;99979.03;;;3.23;54.09
45040;BME280;30778;53.574;7.770;2023-02-24T15:11:31;99980.88;;;3.53;54.00
45040;BME280;30778;53.574;7.770;2023-02-24T15:13:59;99981.56;;;3.94;52.08
45040;BME280;30778;53.574;7.770;2023-02-24T15:19:00;99977.06;;;4.62;51.10
45040;BME280;30778;53.574;7.770;2023-02-24T15:21:40;99979.16;;;4.49;50.08
45040;BME280;30778;53.574;7.770;2023-02-24T15:24:19;99979.13;;;4.51;51.12
45040;BME280;30778;53.574;7.770;2023-02-24T15:27:15;99967.97;;;3.53;53.22
45040;BME280;30778;53.574;7.770;2023-02-24T15:29:44;99966.38;;;4.13;52.04
45040;BME280;30778;53.574;7.770;2023-02-24T15:32:22;99978.88;;;3.65;52.90
45040;BME280;30778;53.574;7.770;2023-02-24T15:34:50;99969.44;;;3.64;53.46
45040;BME280;30778;53.574;7.770;2023-02-24T15:39:48;99963.22;;;3.71;53.54
45040;BME280;30778;53.574;7.770;2023-02-24T15:44:59;99970.09;;;3.72;53.13
45040;BME280;30778;53.574;7.770;2023-02-24T15:47:39;99969.22;;;3.71;53.28
45040;BME280;30778;53.574;7.770;2023-02-24T15:50:05;99961.53;;;3.70;53.33
45040;BME280;30778;53.574;7.770;2023-02-24T15:52:30;99967.47;;;3.39;54.60
45040;BME280;30778;53.574;7.770;2023-02-24T15:54:56;99971.00;;;3.69;53.53
45040;BME280;30778;53.574;7.770;2023-02-24T15:57:25;99970.91;;;3.74;53.20
45040;BME280;30778;53.574;7.770;2023-02-24T15:59:52;99977.94;;;3.33;54.14
45040;BME280;30778;53.574;7.770;2023-02-24T16:02:20;99979.28;;;3.12;53.38
45040;BME280;30778;53.574;7.770;2023-02-24T16:04:47;99973.72;;;3.30;52.10
45040;BME280;30778;53.574;7.770;2023-02-24T16:07:31;99968.66;;;3.24;51.93
45040;BME280;30778;53.574;7.770;2023-02-24T16:09:59;99971.09;;;2.93;52.57
45040;BME280;30778;53.574;7.770;2023-02-24T16:12:29;99971.53;;;3.12;52.23
45040;BME280;30778;53.574;7.770;2023-02-24T16:14:59;99967.09;;;3.54;51.04
45040;BME280;30778;53.574;7.770;2023-02-24T16:17:35;99968.72;;;3.21;51.36
45040;BME280;30778;53.574;7.770;2023-02-24T16:20:04;99973.75;;;3.27;51.46
45040;BME280;30778;53.574;7.770;2023-02-24T16:22:33;99971.66;;;3.07;51.33
45040;BME280;30778;53.574;7.770;2023-02-24T16:24:59;99972.72;;;2.97;52.34
45040;BME280;30778;53.574;7.770;2023-02-24T16:27:24;99983.75;;;3.05;52.23
45040;BME280;30778;53.574;7.770;2023-02-24T16:29:52;99979.44;;;3.04;52.17
45040;BME280;30778;53.574;7.770;2023-02-24T16:32:18;99985.72;;;2.94;53.10
45040;BME280;30778;53.574;7.770;2023-02-24T16:34:46;99984.34;;;3.16;52.35
45040;BME280;30778;53.574;7.770;2023-02-24T16:37:20;99985.72;;;2.94;52.45
45040;BME280;30778;53.574;7.770;2023-02-24T16:39:46;99984.53;;;2.68;52.93
45040;BME280;30778;53.574;7.770;2023-02-24T16:42:14;99987.47;;;2.92;52.54
45040;BME280;30778;53.574;7.770;2023-02-24T16:44:40;99986.34;;;3.04;51.78
45040;BME280;30778;53.574;7.770;2023-02-24T16:47:07;99990.88;;;2.94;52.40